createdAt,value
2023-06-09T00:01:32.018Z,66.29
2023-06-09T00:03:58.976Z,66.11
2023-06-09T00:06:25.547Z,65.80
2023-06-09T00:08:52.858Z,66.03
2023-06-09T00:11:19.953Z,66.91
2023-06-09T00:13:46.812Z,66.86
2023-06-09T00:16:13.308Z,67.78
2023-06-09T00:18:41.347Z,67.95
2023-06-09T00:21:07.929Z,67.74
2023-06-09T00:23:35.183Z,67.54
2023-06-09T00:26:01.807Z,67.54
2023-06-09T00:28:28.356Z,67.30
2023-06-09T00:30:54.885Z,67.47
2023-06-09T00:33:21.440Z,66.98
2023-06-09T00:35:50.270Z,67.61
2023-06-09T00:38:16.769Z,67.44
2023-06-09T00:40:43.263Z,67.48
2023-06-09T00:43:09.785Z,67.48
2023-06-09T00:45:36.317Z,67.28
2023-06-09T00:48:02.996Z,67.29
2023-06-09T00:50:30.274Z,67.40
2023-06-09T00:52:57.401Z,67.86
2023-06-09T00:55:26.232Z,67.24
2023-06-09T00:57:56.824Z,68.10
2023-06-09T01:00:28.480Z,67.04
2023-06-09T01:03:02.003Z,67.69
2023-06-09T01:05:40.042Z,67.41
2023-06-09T01:08:26.800Z,67.19
2023-06-09T01:11:06.126Z,67.29
2023-06-09T01:14:08.367Z,67.05
2023-06-09T01:16:56.108Z,67.42
2023-06-09T01:19:33.950Z,68.75
2023-06-09T01:22:09.924Z,68.64
2023-06-09T01:24:54.979Z,67.45
2023-06-09T01:27:23.146Z,67.59
2023-06-09T01:29:52.698Z,68.21
2023-06-09T01:32:20.601Z,67.95
2023-06-09T01:34:48.580Z,68.40
2023-06-09T01:37:15.651Z,67.99
2023-06-09T01:39:42.580Z,67.53
2023-06-09T01:42:09.234Z,67.11
2023-06-09T01:44:35.841Z,66.61
2023-06-09T01:47:03.158Z,66.85
2023-06-09T01:49:41.663Z,66.90
2023-06-09T01:52:18.836Z,67.30
2023-06-09T01:54:55.519Z,67.66
2023-06-09T01:57:39.295Z,67.41
2023-06-09T02:00:08.263Z,68.42
2023-06-09T02:02:37.697Z,68.58
2023-06-09T02:05:08.055Z,68.56
2023-06-09T02:07:35.750Z,68.00
2023-06-09T02:10:03.905Z,68.34
2023-06-09T02:12:34.596Z,68.64
2023-06-09T02:15:01.693Z,68.76
2023-06-09T02:17:29.060Z,68.96
2023-06-09T02:19:56.140Z,68.46
2023-06-09T02:22:23.085Z,68.15
2023-06-09T02:24:49.562Z,68.36
2023-06-09T02:27:16.146Z,68.14
2023-06-09T02:29:42.662Z,67.89
2023-06-09T02:32:09.477Z,67.80
2023-06-09T02:34:36.183Z,67.52
2023-06-09T02:37:03.427Z,67.11
2023-06-09T02:39:29.951Z,67.16
2023-06-09T02:41:56.490Z,67.38
2023-06-09T02:44:23.097Z,66.88
2023-06-09T02:46:49.548Z,66.72
2023-06-09T02:49:17.464Z,66.70
2023-06-09T02:51:44.323Z,67.02
2023-06-09T02:54:10.801Z,67.16
2023-06-09T02:56:37.351Z,67.46
2023-06-09T02:59:03.945Z,67.50
2023-06-09T03:01:36.115Z,68.73
2023-06-09T03:04:08.803Z,68.47
2023-06-09T03:06:36.607Z,69.33
2023-06-09T03:09:04.076Z,68.97
2023-06-09T03:11:31.513Z,68.88
2023-06-09T03:13:58.035Z,68.97
2023-06-09T03:16:24.539Z,68.82
2023-06-09T03:18:51.098Z,68.48
2023-06-09T03:21:17.858Z,68.93
2023-06-09T03:23:44.432Z,68.02
2023-06-09T03:26:11.029Z,68.31
2023-06-09T03:28:37.493Z,68.15
2023-06-09T03:31:04.059Z,68.53
2023-06-09T03:33:31.049Z,68.06
2023-06-09T03:35:57.651Z,67.79
2023-06-09T03:38:24.207Z,67.97
2023-06-09T03:40:50.753Z,68.03
2023-06-09T03:43:17.300Z,67.81
2023-06-09T03:45:43.781Z,68.29
2023-06-09T03:48:10.386Z,68.40
2023-06-09T03:50:36.955Z,68.72
2023-06-09T03:53:03.448Z,68.41
2023-06-09T03:55:32.584Z,69.05
2023-06-09T03:57:59.311Z,68.70
2023-06-09T04:00:26.288Z,69.04
2023-06-09T04:02:52.863Z,69.34
2023-06-09T04:05:19.404Z,69.24
2023-06-09T04:07:45.995Z,68.90
2023-06-09T04:10:12.570Z,69.01
2023-06-09T04:12:41.968Z,68.52
2023-06-09T04:15:09.222Z,68.40
2023-06-09T04:17:37.887Z,68.93
2023-06-09T04:20:09.434Z,68.60
2023-06-09T04:22:36.670Z,68.57
2023-06-09T04:25:03.692Z,68.72
2023-06-09T04:27:31.570Z,68.77
2023-06-09T04:29:58.745Z,69.11
2023-06-09T04:32:25.503Z,68.51
2023-06-09T04:34:53.734Z,69.08
2023-06-09T04:37:20.387Z,69.06
2023-06-09T04:39:48.222Z,69.38
2023-06-09T04:42:15.301Z,69.05
2023-06-09T04:44:44.592Z,69.27
2023-06-09T04:47:11.800Z,69.03
2023-06-09T04:49:38.660Z,69.04
2023-06-09T04:52:08.670Z,69.01
2023-06-09T04:54:35.465Z,68.69
2023-06-09T04:57:03.295Z,68.55
2023-06-09T04:59:29.980Z,69.11
2023-06-09T05:01:56.839Z,68.55
2023-06-09T05:04:23.445Z,68.12
2023-06-09T05:06:50.149Z,68.02
2023-06-09T05:09:16.737Z,67.53
2023-06-09T05:11:43.301Z,67.32
2023-06-09T05:14:09.846Z,67.10
2023-06-09T05:16:36.536Z,66.57
2023-06-09T05:19:03.504Z,66.16
2023-06-09T05:21:30.590Z,65.72
2023-06-09T05:23:57.248Z,64.28
2023-06-09T05:26:24.048Z,64.73
2023-06-09T05:28:50.641Z,64.32
2023-06-09T05:31:18.550Z,63.80
2023-06-09T05:33:45.500Z,62.92
2023-06-09T05:36:13.188Z,63.93
2023-06-09T05:38:39.805Z,63.20
2023-06-09T05:41:06.469Z,64.35
2023-06-09T05:43:33.483Z,63.88
2023-06-09T05:46:00.394Z,63.77
2023-06-09T05:48:27.041Z,63.65
2023-06-09T05:50:53.576Z,64.31
2023-06-09T05:53:20.089Z,63.62
2023-06-09T05:55:46.535Z,63.15
2023-06-09T05:58:14.528Z,62.84
2023-06-09T06:00:41.233Z,62.87
2023-06-09T06:03:09.616Z,61.70
2023-06-09T06:05:36.230Z,62.30
2023-06-09T06:08:02.782Z,62.00
2023-06-09T06:10:29.359Z,61.63
2023-06-09T06:12:59.189Z,60.93
2023-06-09T06:15:26.125Z,59.43
2023-06-09T06:17:52.658Z,58.29
2023-06-09T06:20:19.284Z,58.34
2023-06-09T06:22:45.799Z,58.15
2023-06-09T06:25:14.246Z,56.68
2023-06-09T06:27:42.223Z,56.30
2023-06-09T06:30:10.029Z,55.07
2023-06-09T06:32:39.304Z,54.17
2023-06-09T06:35:06.767Z,53.51
2023-06-09T06:37:34.222Z,53.06
2023-06-09T06:40:00.758Z,53.33
2023-06-09T06:42:27.217Z,52.96
2023-06-09T06:44:56.233Z,53.17
2023-06-09T06:47:24.320Z,53.01
2023-06-09T06:49:50.802Z,55.15
2023-06-09T06:52:17.309Z,54.69
2023-06-09T06:54:43.821Z,54.11
2023-06-09T06:57:10.523Z,54.08
2023-06-09T06:59:37.019Z,52.84
2023-06-09T07:02:03.859Z,53.94
2023-06-09T07:04:30.454Z,52.93
2023-06-09T07:06:57.222Z,51.68
2023-06-09T07:09:25.393Z,51.86
2023-06-09T07:11:51.863Z,49.84
2023-06-09T07:14:18.540Z,50.32
2023-06-09T07:16:45.002Z,50.11
2023-06-09T07:19:11.626Z,49.12
2023-06-09T07:21:38.624Z,48.95
2023-06-09T07:24:05.662Z,48.77
2023-06-09T07:26:33.419Z,47.66
2023-06-09T07:28:59.991Z,47.40
2023-06-09T07:31:26.625Z,48.38
2023-06-09T07:33:53.122Z,48.71
2023-06-09T07:36:20.468Z,46.35
2023-06-09T07:38:47.690Z,47.36
2023-06-09T07:41:14.974Z,49.69
2023-06-09T07:43:41.487Z,48.66
2023-06-09T07:46:08.482Z,47.50
2023-06-09T07:48:34.999Z,46.05
2023-06-09T07:51:04.254Z,46.03
2023-06-09T07:53:31.044Z,46.76
2023-06-09T07:55:58.369Z,47.18
2023-06-09T07:58:24.876Z,48.35
2023-06-09T08:00:52.245Z,47.78
2023-06-09T08:03:19.042Z,46.93
2023-06-09T08:05:45.631Z,48.15
2023-06-09T08:08:12.089Z,47.88
2023-06-09T08:10:38.583Z,46.73
2023-06-09T08:13:05.147Z,46.47
2023-06-09T08:15:32.014Z,46.30
2023-06-09T08:17:58.546Z,46.72
2023-06-09T08:20:25.178Z,46.38
2023-06-09T08:22:51.703Z,47.39
2023-06-09T08:25:18.323Z,47.20
2023-06-09T08:27:44.900Z,48.69
2023-06-09T08:30:11.962Z,47.53
2023-06-09T08:32:41.296Z,47.22
2023-06-09T08:35:09.192Z,47.74
2023-06-09T08:37:37.565Z,47.80
2023-06-09T08:40:07.037Z,47.94
2023-06-09T08:42:34.033Z,48.06
2023-06-09T08:45:05.089Z,48.26
2023-06-09T08:47:34.762Z,48.49
2023-06-09T08:50:03.724Z,50.07
2023-06-09T08:52:31.314Z,49.59
2023-06-09T08:55:00.171Z,49.99
2023-06-09T08:57:27.115Z,48.91
2023-06-09T08:59:54.298Z,49.09
2023-06-09T09:02:20.799Z,48.51
2023-06-09T09:04:48.161Z,48.47
2023-06-09T09:07:15.194Z,49.17
2023-06-09T09:09:42.230Z,49.22
2023-06-09T09:12:13.822Z,47.01
2023-06-09T09:14:42.923Z,47.44
2023-06-09T09:17:14.178Z,47.22
2023-06-09T09:19:52.992Z,47.32
2023-06-09T09:22:19.517Z,46.56
2023-06-09T09:24:47.083Z,45.73
2023-06-09T09:27:18.881Z,44.46
2023-06-09T09:29:46.279Z,45.04
2023-06-09T09:32:13.925Z,45.07
2023-06-09T09:34:42.378Z,44.31
2023-06-09T09:37:14.564Z,43.58
2023-06-09T09:39:53.961Z,43.80
2023-06-09T09:42:21.606Z,43.56
2023-06-09T09:44:52.021Z,42.76
2023-06-09T09:47:19.756Z,42.34
2023-06-09T09:49:51.306Z,41.81
2023-06-09T09:52:28.419Z,41.23
2023-06-09T09:54:57.445Z,41.74
2023-06-09T09:57:27.058Z,40.94
2023-06-09T09:59:53.963Z,39.93
2023-06-09T10:02:25.288Z,38.58
2023-06-09T10:04:52.229Z,37.52
2023-06-09T10:07:22.512Z,38.55
2023-06-09T10:09:54.633Z,38.03
2023-06-09T10:12:22.863Z,37.47
2023-06-09T10:14:52.142Z,35.87
2023-06-09T10:17:23.109Z,35.73
2023-06-09T10:19:53.443Z,36.91
2023-06-09T10:22:21.005Z,37.53
2023-06-09T10:24:47.805Z,38.16
2023-06-09T10:27:15.117Z,37.08
2023-06-09T10:29:42.266Z,37.71
2023-06-09T10:32:12.126Z,37.74
2023-06-09T10:34:41.987Z,38.65
2023-06-09T10:37:08.485Z,37.80
2023-06-09T10:39:56.846Z,36.68
2023-06-09T10:42:40.685Z,35.28
2023-06-09T10:45:15.121Z,36.25
2023-06-09T10:47:49.975Z,36.16
2023-06-09T10:50:25.955Z,35.37
2023-06-09T10:52:57.712Z,35.75
2023-06-09T10:55:28.219Z,35.82
2023-06-09T10:57:56.172Z,36.70
2023-06-09T11:00:24.228Z,36.55
2023-06-09T11:02:51.831Z,36.70
2023-06-09T11:05:21.418Z,35.94
2023-06-09T11:07:53.582Z,35.55
2023-06-09T11:10:20.057Z,35.09
2023-06-09T11:12:53.040Z,35.99
2023-06-09T11:15:20.049Z,35.12
2023-06-09T11:17:48.894Z,35.03
2023-06-09T11:20:18.700Z,35.45
2023-06-09T11:22:45.825Z,34.88
2023-06-09T11:25:18.502Z,34.83
2023-06-09T11:27:58.640Z,34.94
2023-06-09T11:30:31.081Z,34.50
2023-06-09T11:32:59.124Z,34.56
2023-06-09T11:35:29.338Z,34.70
2023-06-09T11:37:59.201Z,34.98
2023-06-09T11:40:26.758Z,34.93
2023-06-09T11:42:53.377Z,34.30
2023-06-09T11:45:23.851Z,34.11
2023-06-09T11:47:50.908Z,33.87
2023-06-09T11:50:17.508Z,34.77
2023-06-09T11:52:46.313Z,34.97
2023-06-09T11:55:15.902Z,34.33
2023-06-09T11:57:42.934Z,34.62
2023-06-09T12:00:14.884Z,34.56
2023-06-09T12:02:46.511Z,33.85
2023-06-09T12:05:13.840Z,33.88
2023-06-09T12:07:45.409Z,33.09
2023-06-09T12:10:18.351Z,32.78
2023-06-09T12:12:49.538Z,33.74
2023-06-09T12:15:17.505Z,33.81
2023-06-09T12:17:45.312Z,33.91
2023-06-09T12:20:27.315Z,34.54
2023-06-09T12:22:55.983Z,33.97
2023-06-09T12:25:28.216Z,34.98
2023-06-09T12:27:56.239Z,34.98
2023-06-09T12:30:36.114Z,35.04
2023-06-09T12:33:10.819Z,34.44
2023-06-09T12:35:49.051Z,34.58
2023-06-09T12:38:17.674Z,34.79
2023-06-09T12:40:50.006Z,35.13
2023-06-09T12:43:21.028Z,34.99
2023-06-09T12:45:48.854Z,34.93
2023-06-09T12:48:15.919Z,35.32
2023-06-09T12:50:43.079Z,35.26
2023-06-09T12:53:11.156Z,35.34
2023-06-09T12:55:39.182Z,35.13
2023-06-09T12:58:06.452Z,35.58
2023-06-09T13:00:33.739Z,36.95
2023-06-09T13:03:04.189Z,36.96
2023-06-09T13:05:32.049Z,36.25
2023-06-09T13:07:59.848Z,36.45
2023-06-09T13:10:27.784Z,35.96
2023-06-09T13:12:54.737Z,35.70
2023-06-09T13:15:23.133Z,35.72
2023-06-09T13:17:50.861Z,36.15
2023-06-09T13:20:18.697Z,35.84
2023-06-09T13:22:46.258Z,35.23
2023-06-09T13:25:13.259Z,36.06
2023-06-09T13:27:45.348Z,36.14
2023-06-09T13:30:12.550Z,36.36
2023-06-09T13:32:39.728Z,35.60
2023-06-09T13:35:07.079Z,35.02
2023-06-09T13:37:33.759Z,35.38
2023-06-09T13:40:00.314Z,34.95
2023-06-09T13:42:26.792Z,35.07
2023-06-09T13:44:53.399Z,35.23
2023-06-09T13:47:19.934Z,34.79
2023-06-09T13:49:46.804Z,34.69
2023-06-09T13:52:14.348Z,34.34
2023-06-09T13:54:40.811Z,34.48
2023-06-09T13:57:09.936Z,33.86
2023-06-09T13:59:38.145Z,34.25
2023-06-09T14:02:05.910Z,34.69
2023-06-09T14:04:33.432Z,34.47
2023-06-09T14:07:00.200Z,34.88
2023-06-09T14:09:26.725Z,34.49
2023-06-09T14:11:53.246Z,33.92
2023-06-09T14:14:19.769Z,34.71
2023-06-09T14:16:47.204Z,34.57
2023-06-09T14:19:20.608Z,34.19
2023-06-09T14:21:47.075Z,35.77
2023-06-09T14:24:13.626Z,35.14
2023-06-09T14:26:40.183Z,34.84
2023-06-09T14:29:06.641Z,35.32
2023-06-09T14:31:33.198Z,34.98
2023-06-09T14:33:59.783Z,34.75
2023-06-09T14:36:26.442Z,34.82
2023-06-09T14:38:52.927Z,35.06
2023-06-09T14:41:19.593Z,36.08
2023-06-09T14:43:46.188Z,35.65
2023-06-09T14:46:12.695Z,35.11
2023-06-09T14:48:39.202Z,35.67
2023-06-09T14:51:05.881Z,36.13
2023-06-09T14:53:32.409Z,36.34
2023-06-09T14:55:59.028Z,36.57
2023-06-09T14:58:25.584Z,37.08
2023-06-09T15:00:52.046Z,38.22
2023-06-09T15:03:19.095Z,38.08
2023-06-09T15:05:45.966Z,36.18
2023-06-09T15:08:12.667Z,36.41
2023-06-09T15:10:44.060Z,36.67
2023-06-09T15:13:11.784Z,38.32
2023-06-09T15:15:38.466Z,38.14
2023-06-09T15:18:06.883Z,38.26
2023-06-09T15:20:34.809Z,38.34
2023-06-09T15:23:03.836Z,38.99
2023-06-09T15:25:34.902Z,39.13
2023-06-09T15:28:06.567Z,38.52
2023-06-09T15:30:35.500Z,38.49
2023-06-09T15:33:10.271Z,38.80
2023-06-09T15:35:42.069Z,38.42
2023-06-09T15:38:14.962Z,38.60
2023-06-09T15:40:44.718Z,39.31
2023-06-09T15:43:13.366Z,39.23
2023-06-09T15:45:44.629Z,39.26
2023-06-09T15:48:12.240Z,39.92
2023-06-09T15:50:40.475Z,39.93
2023-06-09T15:53:08.454Z,39.74
2023-06-09T15:55:35.115Z,40.06
2023-06-09T15:58:04.144Z,40.49
2023-06-09T16:00:34.986Z,40.37
2023-06-09T16:03:05.746Z,40.68
2023-06-09T16:05:34.999Z,40.42
2023-06-09T16:08:04.615Z,40.38
2023-06-09T16:10:32.683Z,40.79
2023-06-09T16:13:00.414Z,40.82
2023-06-09T16:15:30.183Z,40.86
2023-06-09T16:17:57.926Z,40.66
2023-06-09T16:20:24.430Z,39.70
2023-06-09T16:22:50.920Z,40.19
2023-06-09T16:25:17.406Z,39.99
2023-06-09T16:27:44.912Z,40.36
2023-06-09T16:30:11.985Z,39.74
2023-06-09T16:32:40.356Z,40.44
2023-06-09T16:35:10.033Z,39.35
2023-06-09T16:37:36.734Z,39.64
2023-06-09T16:40:05.844Z,39.84
2023-06-09T16:42:33.116Z,39.35
2023-06-09T16:44:59.613Z,40.48
2023-06-09T16:47:26.172Z,40.04
2023-06-09T16:49:52.744Z,40.00
2023-06-09T16:52:20.011Z,40.27
2023-06-09T16:54:46.505Z,41.05
2023-06-09T16:57:13.287Z,41.08
2023-06-09T16:59:40.776Z,41.87
2023-06-09T17:02:07.617Z,42.25
2023-06-09T17:04:34.294Z,43.27
2023-06-09T17:07:00.751Z,43.33
2023-06-09T17:09:27.255Z,43.63
2023-06-09T17:11:53.768Z,44.04
2023-06-09T17:14:20.901Z,44.85
2023-06-09T17:16:47.569Z,44.59
2023-06-09T17:19:14.220Z,44.75
2023-06-09T17:21:40.674Z,45.13
2023-06-09T17:24:07.761Z,45.95
2023-06-09T17:26:34.377Z,45.81
2023-06-09T17:29:01.324Z,45.65
2023-06-09T17:31:27.954Z,46.08
2023-06-09T17:33:54.633Z,45.33
2023-06-09T17:36:22.046Z,45.24
2023-06-09T17:38:50.667Z,45.87
2023-06-09T17:41:19.571Z,45.65
2023-06-09T17:43:46.112Z,45.42
2023-06-09T17:46:13.128Z,45.80
2023-06-09T17:48:44.609Z,45.97
2023-06-09T17:51:13.022Z,46.16
2023-06-09T17:53:42.214Z,47.18
2023-06-09T17:56:09.372Z,47.53
2023-06-09T17:58:35.993Z,47.62
2023-06-09T18:01:02.603Z,47.79
2023-06-09T18:03:29.216Z,47.70
2023-06-09T18:05:55.897Z,47.88
2023-06-09T18:08:23.058Z,47.81
2023-06-09T18:10:49.720Z,48.27
2023-06-09T18:13:17.198Z,48.98
2023-06-09T18:15:44.748Z,50.54
2023-06-09T18:18:11.572Z,50.64
2023-06-09T18:20:38.226Z,51.22
2023-06-09T18:23:04.769Z,50.96
2023-06-09T18:25:32.863Z,50.80
2023-06-09T18:28:01.839Z,50.94
2023-06-09T18:30:29.428Z,50.83
2023-06-09T18:32:55.997Z,51.51
2023-06-09T18:35:22.511Z,52.46
2023-06-09T18:37:49.011Z,52.37
2023-06-09T18:40:15.634Z,52.23
2023-06-09T18:42:42.161Z,53.06
2023-06-09T18:45:09.678Z,53.47
2023-06-09T18:47:36.855Z,53.71
2023-06-09T18:50:03.730Z,53.99
2023-06-09T18:52:31.200Z,55.24
2023-06-09T18:54:57.742Z,56.52
2023-06-09T18:57:24.445Z,57.04
2023-06-09T18:59:51.022Z,57.49
2023-06-09T19:02:17.777Z,56.59
2023-06-09T19:04:45.853Z,56.88
2023-06-09T19:07:12.857Z,58.22
2023-06-09T19:09:39.489Z,57.33
2023-06-09T19:12:06.906Z,58.68
2023-06-09T19:14:33.802Z,58.27
2023-06-09T19:17:00.407Z,58.43
2023-06-09T19:19:26.954Z,58.45
2023-06-09T19:21:55.181Z,59.73
2023-06-09T19:24:21.926Z,60.14
2023-06-09T19:26:48.578Z,60.12
2023-06-09T19:29:15.386Z,60.19
2023-06-09T19:31:42.014Z,60.40
2023-06-09T19:34:08.556Z,60.46
2023-06-09T19:36:35.153Z,60.52
2023-06-09T19:39:02.654Z,60.25
2023-06-09T19:41:29.255Z,60.79
2023-06-09T19:43:55.767Z,60.69
2023-06-09T19:46:22.364Z,60.65
2023-06-09T19:48:48.894Z,61.48
2023-06-09T19:51:16.542Z,61.92
2023-06-09T19:53:43.082Z,61.84
2023-06-09T19:56:12.630Z,61.67
2023-06-09T19:58:39.690Z,62.00
2023-06-09T20:01:06.321Z,60.95
2023-06-09T20:03:33.066Z,62.44
2023-06-09T20:05:59.636Z,62.79
2023-06-09T20:08:26.486Z,61.75
2023-06-09T20:10:52.988Z,63.08
2023-06-09T20:13:19.551Z,63.47
2023-06-09T20:15:46.197Z,63.45
2023-06-09T20:18:13.498Z,64.26
2023-06-09T20:20:42.808Z,63.64
2023-06-09T20:23:11.491Z,64.57
2023-06-09T20:25:38.840Z,64.31
2023-06-09T20:28:05.539Z,64.82
2023-06-09T20:30:32.080Z,65.06
2023-06-09T20:32:58.628Z,64.82
2023-06-09T20:35:25.974Z,66.13
2023-06-09T20:37:53.440Z,65.86
2023-06-09T20:40:20.200Z,65.63
2023-06-09T20:42:47.224Z,66.34
2023-06-09T20:45:17.379Z,66.70
2023-06-09T20:47:45.046Z,66.78
2023-06-09T20:50:11.689Z,67.01
2023-06-09T20:52:38.248Z,67.09
2023-06-09T20:55:05.348Z,67.01
2023-06-09T20:57:31.974Z,67.42
2023-06-09T20:59:58.741Z,67.59
2023-06-09T21:02:26.887Z,67.32
2023-06-09T21:04:55.204Z,67.69
2023-06-09T21:07:23.016Z,67.69
2023-06-09T21:09:49.523Z,67.15
2023-06-09T21:12:16.425Z,68.07
2023-06-09T21:14:43.060Z,67.57
2023-06-09T21:17:10.341Z,67.40
2023-06-09T21:19:42.885Z,68.39
2023-06-09T21:22:09.364Z,69.21
2023-06-09T21:24:35.818Z,69.24
2023-06-09T21:27:02.417Z,68.83
2023-06-09T21:29:28.917Z,68.56
2023-06-09T21:31:55.596Z,69.12
2023-06-09T21:34:22.117Z,69.51
2023-06-09T21:36:48.619Z,68.28
2023-06-09T21:39:15.100Z,67.80
2023-06-09T21:41:41.882Z,68.42
2023-06-09T21:44:08.410Z,67.23
2023-06-09T21:46:34.906Z,67.38
2023-06-09T21:49:01.454Z,67.36
2023-06-09T21:51:27.943Z,67.58
2023-06-09T21:53:54.487Z,67.75
2023-06-09T21:56:21.026Z,67.35
2023-06-09T21:58:47.587Z,68.06
2023-06-09T22:01:14.173Z,68.29
2023-06-09T22:03:40.779Z,67.83
2023-06-09T22:06:07.548Z,68.06
2023-06-09T22:08:35.894Z,67.77
2023-06-09T22:11:03.977Z,68.54
2023-06-09T22:13:30.642Z,68.95
2023-06-09T22:15:57.113Z,69.10
2023-06-09T22:18:23.639Z,69.42
2023-06-09T22:20:50.165Z,69.58
2023-06-09T22:23:16.708Z,69.68
2023-06-09T22:25:43.367Z,70.12
2023-06-09T22:28:09.888Z,70.36
2023-06-09T22:30:36.414Z,70.97
2023-06-09T22:33:03.252Z,70.05
2023-06-09T22:35:29.876Z,69.98
2023-06-09T22:37:56.564Z,70.15
2023-06-09T22:40:23.142Z,70.39
2023-06-09T22:42:50.981Z,71.51
2023-06-09T22:45:18.217Z,71.07
2023-06-09T22:47:46.328Z,71.12
2023-06-09T22:50:14.454Z,70.97
2023-06-09T22:52:44.351Z,71.29
2023-06-09T22:55:12.552Z,70.77
2023-06-09T22:57:40.038Z,71.11
2023-06-09T23:00:08.806Z,71.88
2023-06-09T23:02:36.143Z,72.17
2023-06-09T23:05:06.366Z,71.88
2023-06-09T23:07:33.054Z,72.21
2023-06-09T23:09:59.547Z,72.40
2023-06-09T23:12:26.239Z,72.20
2023-06-09T23:14:54.036Z,72.74
2023-06-09T23:17:20.657Z,73.32
2023-06-09T23:19:47.248Z,72.62
2023-06-09T23:22:14.304Z,72.75
2023-06-09T23:24:45.922Z,73.04
2023-06-09T23:27:13.007Z,72.72
2023-06-09T23:29:39.513Z,72.37
2023-06-09T23:32:12.667Z,71.93
2023-06-09T23:34:42.657Z,72.65
2023-06-09T23:37:13.590Z,72.99
2023-06-09T23:39:40.803Z,73.68
2023-06-09T23:42:08.810Z,72.46
2023-06-09T23:44:35.312Z,72.57
2023-06-09T23:47:02.757Z,71.13
2023-06-09T23:49:29.297Z,71.37
2023-06-09T23:51:55.963Z,71.08
2023-06-09T23:54:23.487Z,70.92
2023-06-09T23:56:50.010Z,70.64
2023-06-09T23:59:16.886Z,70.72
